createdAt,value
2016-12-20T00:00:01.737Z,-2.69
2016-12-20T00:01:02.065Z,-2.83
2016-12-20T00:02:01.721Z,-2.84
2016-12-20T00:03:01.725Z,-2.9
2016-12-20T00:04:02.037Z,-2.81
2016-12-20T00:05:02.041Z,-2.8
2016-12-20T00:06:01.709Z,-2.96
2016-12-20T00:07:02.029Z,-2.91
2016-12-20T00:08:01.697Z,-2.99
2016-12-20T00:09:02.017Z,-3.04
2016-12-20T00:10:02.026Z,-3.01
2016-12-20T00:11:01.685Z,-2.98
2016-12-20T00:12:02.009Z,-3.04
2016-12-20T00:13:01.997Z,-3.05
2016-12-20T00:14:01.998Z,-3.01
2016-12-20T00:15:01.661Z,-2.99
2016-12-20T00:16:01.657Z,-2.99
2016-12-20T00:17:01.653Z,-2.99
2016-12-20T00:18:01.318Z,-3.01
2016-12-20T00:19:01.314Z,-2.99
2016-12-20T00:20:01.962Z,-2.99
2016-12-20T00:21:01.958Z,-2.98
2016-12-20T00:22:01.625Z,-3.14
2016-12-20T00:23:01.618Z,-3.04
2016-12-20T00:24:01.614Z,-3.02
2016-12-20T00:25:01.942Z,-3.12
2016-12-20T00:26:01.934Z,-3.11
2016-12-20T00:27:01.938Z,-3.19
2016-12-20T00:28:01.596Z,-3.17
2016-12-20T00:29:01.922Z,-3.17
2016-12-20T00:30:01.923Z,-3.15
2016-12-20T00:31:01.911Z,-3.23
2016-12-20T00:32:01.895Z,-3.23
2016-12-20T00:33:01.894Z,-3.15
2016-12-20T00:34:01.567Z,-3.19
2016-12-20T00:35:01.559Z,-3.15
2016-12-20T00:36:01.878Z,-3.12
2016-12-20T00:37:01.883Z,-3.09
2016-12-20T00:38:01.867Z,-3.15
2016-12-20T00:39:01.871Z,-3.15
2016-12-20T00:40:01.207Z,-3.15
2016-12-20T00:41:01.847Z,-3.12
2016-12-20T00:42:01.523Z,-3.12
2016-12-20T00:43:01.847Z,-3.07
2016-12-20T00:44:01.511Z,-3.11
2016-12-20T00:45:01.827Z,-3.19
2016-12-20T00:46:01.503Z,-3.15
2016-12-20T00:47:01.499Z,-3.19
2016-12-20T00:48:01.484Z,-3.15
2016-12-20T00:49:01.491Z,-3.17
2016-12-20T00:50:01.484Z,-3.11
2016-12-20T00:51:01.804Z,-3.07
2016-12-20T00:52:01.796Z,-3.12
2016-12-20T00:53:01.464Z,-3.15
2016-12-20T00:54:01.452Z,-3.19
2016-12-20T00:55:01.452Z,-3.19
2016-12-20T00:56:01.120Z,-3.17
2016-12-20T00:57:01.437Z,-3.22
2016-12-20T00:58:01.768Z,-3.2
2016-12-20T00:59:01.428Z,-3.22
2016-12-20T01:00:01.424Z,-3.2
2016-12-20T01:01:01.760Z,-3.26
2016-12-20T01:02:01.748Z,-3.32
2016-12-20T01:03:01.748Z,-3.3
2016-12-20T01:04:01.736Z,-3.38
2016-12-20T01:05:01.736Z,-3.37
2016-12-20T01:06:01.721Z,-3.36
2016-12-20T01:07:01.389Z,-3.48
2016-12-20T01:08:01.720Z,-3.41
2016-12-20T01:09:01.710Z,-3.46
2016-12-20T01:10:01.377Z,-3.48
2016-12-20T01:11:01.705Z,-3.47
2016-12-20T01:12:01.689Z,-3.58
2016-12-20T01:13:01.690Z,-3.51
2016-12-20T01:14:01.357Z,-3.48
2016-12-20T01:15:01.357Z,-3.47
2016-12-20T01:16:01.677Z,-3.56
2016-12-20T01:17:01.665Z,-3.46
2016-12-20T01:18:01.333Z,-3.51
2016-12-20T01:19:01.337Z,-3.47
2016-12-20T01:20:01.653Z,-3.37
2016-12-20T01:21:01.317Z,-3.38
2016-12-20T01:22:01.309Z,-3.51
2016-12-20T01:23:01.637Z,-3.48
2016-12-20T01:24:01.626Z,-3.5
2016-12-20T01:25:01.626Z,-3.41
2016-12-20T01:26:01.618Z,-3.5
2016-12-20T01:27:01.278Z,-3.51
2016-12-20T01:28:01.286Z,-3.59
2016-12-20T01:29:01.278Z,-3.47
2016-12-20T01:30:00.945Z,-3.44
2016-12-20T01:31:01.262Z,-3.48
2016-12-20T01:32:01.262Z,-3.58
2016-12-20T01:33:01.262Z,-3.61
2016-12-20T01:34:01.246Z,-3.59
2016-12-20T01:35:01.574Z,-3.64
2016-12-20T01:36:01.254Z,-3.75
2016-12-20T01:37:01.234Z,-3.71
2016-12-20T01:38:01.562Z,-3.78
2016-12-20T01:39:01.551Z,-3.66
2016-12-20T01:40:01.546Z,-3.62
2016-12-20T01:41:01.211Z,-3.71
2016-12-20T01:42:01.530Z,-3.74
2016-12-20T01:43:01.531Z,-3.75
2016-12-20T01:44:01.538Z,-3.71
2016-12-20T01:45:01.187Z,-3.68
2016-12-20T01:46:01.219Z,-3.74
2016-12-20T01:47:01.179Z,-3.69
2016-12-20T01:48:00.851Z,-3.74
2016-12-20T01:49:00.839Z,-3.74
2016-12-20T01:50:01.171Z,-3.71
2016-12-20T01:51:01.163Z,-3.75
2016-12-20T01:52:01.155Z,-3.77
2016-12-20T01:53:01.479Z,-3.69
2016-12-20T01:54:01.147Z,-3.75
2016-12-20T01:55:01.472Z,-3.85
2016-12-20T01:56:01.460Z,-3.83
2016-12-20T01:57:01.456Z,-3.84
2016-12-20T01:58:01.120Z,-3.81
2016-12-20T01:59:01.120Z,-3.75
2016-12-20T02:00:01.116Z,-3.74
2016-12-20T02:01:01.112Z,-3.71
2016-12-20T02:02:00.780Z,-3.69
2016-12-20T02:03:01.100Z,-3.75
2016-12-20T02:04:01.092Z,-3.75
2016-12-20T02:05:01.092Z,-3.71
2016-12-20T02:06:01.412Z,-3.81
2016-12-20T02:07:01.408Z,-3.77
2016-12-20T02:08:01.396Z,-3.81
2016-12-20T02:09:01.073Z,-3.8
2016-12-20T02:10:01.385Z,-3.75
2016-12-20T02:11:01.053Z,-3.74
2016-12-20T02:12:00.721Z,-3.59
2016-12-20T02:13:01.044Z,-3.64
2016-12-20T02:14:01.041Z,-3.55
2016-12-20T02:15:01.365Z,-3.59
2016-12-20T02:16:01.361Z,-3.61
2016-12-20T02:17:01.025Z,-3.59
2016-12-20T02:18:01.345Z,-3.61
2016-12-20T02:19:01.045Z,-3.74
2016-12-20T02:20:00.681Z,-3.74
2016-12-20T02:21:00.673Z,-3.66
2016-12-20T02:22:00.989Z,-3.69
2016-12-20T02:23:01.317Z,-3.71
2016-12-20T02:24:00.989Z,-3.81
2016-12-20T02:25:01.309Z,-3.75
2016-12-20T02:26:01.305Z,-3.81
2016-12-20T02:27:00.975Z,-3.88
2016-12-20T02:28:00.962Z,-3.91
2016-12-20T02:29:00.969Z,-3.94
2016-12-20T02:30:01.298Z,-3.85
2016-12-20T02:31:01.274Z,-3.88
2016-12-20T02:32:00.966Z,-3.94
2016-12-20T02:33:01.258Z,-3.9
2016-12-20T02:34:00.934Z,-3.91
2016-12-20T02:35:01.258Z,-3.9
2016-12-20T02:36:01.250Z,-3.94
2016-12-20T02:37:01.246Z,-3.87
2016-12-20T02:38:01.242Z,-3.84
2016-12-20T02:39:00.902Z,-3.85
2016-12-20T02:40:01.218Z,-3.75
2016-12-20T02:41:00.890Z,-3.75
2016-12-20T02:42:00.886Z,-3.69
2016-12-20T02:43:01.242Z,-3.61
2016-12-20T02:44:01.207Z,-3.75
2016-12-20T02:45:00.883Z,-3.75
2016-12-20T02:46:01.197Z,-3.64
2016-12-20T02:47:00.863Z,-3.74
2016-12-20T02:48:00.531Z,-3.71
2016-12-20T02:49:00.527Z,-3.65
2016-12-20T02:50:01.171Z,-3.66
2016-12-20T02:51:01.163Z,-3.71
2016-12-20T02:52:01.167Z,-3.74
2016-12-20T02:53:00.831Z,-3.69
2016-12-20T02:54:01.157Z,-3.61
2016-12-20T02:55:00.823Z,-3.61
2016-12-20T02:56:01.139Z,-3.58
2016-12-20T02:57:00.807Z,-3.55
2016-12-20T02:58:01.135Z,-3.56
2016-12-20T02:59:01.127Z,-3.47
2016-12-20T03:00:01.123Z,-3.47
2016-12-20T03:01:00.451Z,-3.48
2016-12-20T03:02:00.459Z,-3.38
2016-12-20T03:03:00.767Z,-3.33
2016-12-20T03:04:01.104Z,-3.4
2016-12-20T03:05:00.763Z,-3.27
2016-12-20T03:06:00.755Z,-3.29
2016-12-20T03:07:00.751Z,-3.33
2016-12-20T03:08:00.420Z,-3.4
2016-12-20T03:09:00.752Z,-3.33
2016-12-20T03:10:01.069Z,-3.36
2016-12-20T03:11:01.068Z,-3.37
2016-12-20T03:12:00.736Z,-3.43
2016-12-20T03:13:00.724Z,-3.44
2016-12-20T03:14:00.716Z,-3.47
2016-12-20T03:15:00.720Z,-3.48
2016-12-20T03:16:00.703Z,-3.47
2016-12-20T03:17:01.024Z,-3.41
2016-12-20T03:18:00.688Z,-3.47
2016-12-20T03:19:00.360Z,-3.37
2016-12-20T03:20:00.692Z,-3.4
2016-12-20T03:21:01.008Z,-3.46
2016-12-20T03:22:01.004Z,-3.51
2016-12-20T03:23:00.668Z,-3.41
2016-12-20T03:24:00.660Z,-3.46
2016-12-20T03:25:00.656Z,-3.44
2016-12-20T03:26:00.976Z,-3.37
2016-12-20T03:27:00.972Z,-3.37
2016-12-20T03:28:00.964Z,-3.43
2016-12-20T03:29:00.632Z,-3.46
2016-12-20T03:30:00.828Z,-3.41
2016-12-20T03:31:00.952Z,-3.37
2016-12-20T03:32:00.945Z,-3.38
2016-12-20T03:33:00.941Z,-3.4
2016-12-20T03:34:00.932Z,-3.38
2016-12-20T03:35:00.600Z,-3.41
2016-12-20T03:36:00.925Z,-3.37
2016-12-20T03:37:00.592Z,-3.36
2016-12-20T03:38:00.585Z,-3.33
2016-12-20T03:39:00.912Z,-3.29
2016-12-20T03:40:00.577Z,-3.33
2016-12-20T03:41:00.565Z,-3.33
2016-12-20T03:42:00.897Z,-3.37
2016-12-20T03:43:00.885Z,-3.38
2016-12-20T03:44:00.881Z,-3.46
2016-12-20T03:45:00.877Z,-3.43
2016-12-20T03:46:00.865Z,-3.33
2016-12-20T03:47:00.876Z,-3.33
2016-12-20T03:48:00.893Z,-3.32
2016-12-20T03:49:00.857Z,-3.29
2016-12-20T03:50:00.852Z,-3.43
2016-12-20T03:51:00.553Z,-3.37
2016-12-20T03:52:00.837Z,-3.4
2016-12-20T03:53:00.833Z,-3.48
2016-12-20T03:54:00.861Z,-3.33
2016-12-20T03:55:00.829Z,-3.44
2016-12-20T03:56:00.817Z,-3.37
2016-12-20T03:57:00.813Z,-3.38
2016-12-20T03:58:00.801Z,-3.44
2016-12-20T03:59:00.801Z,-3.44
2016-12-20T04:00:00.470Z,-3.44
2016-12-20T04:01:00.465Z,-3.48
2016-12-20T04:02:00.453Z,-3.32
2016-12-20T04:03:00.777Z,-3.37
2016-12-20T04:04:00.770Z,-3.38
2016-12-20T04:05:00.770Z,-3.41
2016-12-20T04:06:00.437Z,-3.37
2016-12-20T04:07:00.433Z,-3.43
2016-12-20T04:08:00.425Z,-3.37
2016-12-20T04:09:00.750Z,-3.4
2016-12-20T04:10:00.750Z,-3.36
2016-12-20T04:11:00.734Z,-3.3
2016-12-20T04:12:00.737Z,-3.38
2016-12-20T04:13:00.069Z,-3.32
2016-12-20T04:14:00.401Z,-3.29
2016-12-20T04:15:00.712Z,-3.33
2016-12-20T04:16:00.381Z,-3.29
2016-12-20T04:17:00.378Z,-3.37
2016-12-20T04:18:00.374Z,-3.4
2016-12-20T04:19:00.702Z,-3.41
2016-12-20T04:20:00.691Z,-3.36
2016-12-20T04:21:00.678Z,-3.47
2016-12-20T04:22:00.678Z,-3.44
2016-12-20T04:23:00.014Z,-3.32
2016-12-20T04:24:00.338Z,-3.46
2016-12-20T04:25:00.666Z,-3.47
2016-12-20T04:26:00.326Z,-3.4
2016-12-20T04:27:00.646Z,-3.41
2016-12-20T04:28:00.638Z,-3.48
2016-12-20T04:28:59.978Z,-3.44
2016-12-20T04:30:00.310Z,-3.44
2016-12-20T04:31:00.302Z,-3.44
2016-12-20T04:32:00.630Z,-3.47
2016-12-20T04:33:00.622Z,-3.46
2016-12-20T04:34:00.610Z,-3.46
2016-12-20T04:34:59.946Z,-3.43
2016-12-20T04:36:00.266Z,-3.43
2016-12-20T04:37:00.270Z,-3.4
2016-12-20T04:38:00.594Z,-3.37
2016-12-20T04:39:00.589Z,-3.4
2016-12-20T04:40:00.579Z,-3.46
2016-12-20T04:41:00.250Z,-3.51
2016-12-20T04:42:00.246Z,-3.48
2016-12-20T04:43:00.558Z,-3.4
2016-12-20T04:44:00.264Z,-3.4
2016-12-20T04:45:00.219Z,-3.43
2016-12-20T04:46:00.214Z,-3.36
2016-12-20T04:46:59.886Z,-3.29
2016-12-20T04:48:00.207Z,-3.37
2016-12-20T04:49:00.570Z,-3.4
2016-12-20T04:50:00.194Z,-3.3
2016-12-20T04:51:00.514Z,-3.33
2016-12-20T04:52:00.190Z,-3.32
2016-12-20T04:53:00.182Z,-3.32
2016-12-20T04:54:00.502Z,-3.3
2016-12-20T04:55:00.498Z,-3.32
2016-12-20T04:56:00.499Z,-3.37
2016-12-20T04:57:00.154Z,-3.36
2016-12-20T04:58:00.192Z,-3.36
2016-12-20T04:59:00.150Z,-3.4
2016-12-20T05:00:00.150Z,-3.37
2016-12-20T05:01:00.495Z,-3.47
2016-12-20T05:02:00.462Z,-3.44
2016-12-20T05:03:00.126Z,-3.44
2016-12-20T05:04:00.126Z,-3.32
2016-12-20T05:05:00.446Z,-3.29
2016-12-20T05:06:00.443Z,-3.3
2016-12-20T05:07:00.426Z,-3.36
2016-12-20T05:08:00.435Z,-3.3
2016-12-20T05:09:00.426Z,-3.26
2016-12-20T05:10:00.419Z,-3.2
2016-12-20T05:11:00.411Z,-3.27
2016-12-20T05:12:00.075Z,-3.29
2016-12-20T05:13:00.395Z,-3.25
2016-12-20T05:14:00.395Z,-3.36
2016-12-20T05:15:00.391Z,-3.32
2016-12-20T05:16:00.391Z,-3.32
2016-12-20T05:17:00.379Z,-3.32
2016-12-20T05:18:00.371Z,-3.3
2016-12-20T05:19:00.041Z,-3.29
2016-12-20T05:20:00.359Z,-3.23
2016-12-20T05:21:00.367Z,-3.27
2016-12-20T05:22:00.363Z,-3.29
2016-12-20T05:23:00.347Z,-3.25
2016-12-20T05:24:00.335Z,-3.32
2016-12-20T05:25:00.015Z,-3.25
2016-12-20T05:25:59.997Z,-3.14
2016-12-20T05:27:00.331Z,-3.19
2016-12-20T05:27:59.995Z,-3.2
2016-12-20T05:28:59.989Z,-3.32
2016-12-20T05:30:00.311Z,-3.32
2016-12-20T05:31:00.307Z,-3.3
2016-12-20T05:31:59.979Z,-3.3
2016-12-20T05:33:00.291Z,-3.3
2016-12-20T05:34:00.291Z,-3.38
2016-12-20T05:35:00.275Z,-3.43
2016-12-20T05:35:59.991Z,-3.44
2016-12-20T05:36:59.939Z,-3.43
2016-12-20T05:37:59.935Z,-3.44
2016-12-20T05:38:59.928Z,-3.48
2016-12-20T05:40:00.255Z,-3.46
2016-12-20T05:40:59.919Z,-3.48
2016-12-20T05:42:00.244Z,-3.44
2016-12-20T05:42:59.940Z,-3.47
2016-12-20T05:43:59.900Z,-3.46
2016-12-20T05:45:00.220Z,-3.43
2016-12-20T05:46:00.224Z,-3.46
2016-12-20T05:47:00.228Z,-3.37
2016-12-20T05:48:00.240Z,-3.48
2016-12-20T05:48:59.552Z,-3.46
2016-12-20T05:49:59.875Z,-3.43
2016-12-20T05:51:00.192Z,-3.43
2016-12-20T05:51:59.867Z,-3.5
2016-12-20T05:53:00.180Z,-3.51
2016-12-20T05:54:00.176Z,-3.5
2016-12-20T05:54:59.520Z,-3.43
2016-12-20T05:55:59.520Z,-3.47
2016-12-20T05:57:00.164Z,-3.38
2016-12-20T05:57:59.832Z,-3.4
2016-12-20T05:59:00.156Z,-3.37
2016-12-20T05:59:59.820Z,-3.38
2016-12-20T06:00:59.808Z,-3.46
2016-12-20T06:02:00.140Z,-3.41
2016-12-20T06:02:59.805Z,-3.46
2016-12-20T06:03:59.796Z,-3.41
2016-12-20T06:05:00.120Z,-3.4
2016-12-20T06:05:59.784Z,-3.46
2016-12-20T06:06:59.792Z,-3.48
2016-12-20T06:08:00.096Z,-3.46
2016-12-20T06:09:00.097Z,-3.38
2016-12-20T06:10:00.096Z,-3.48
2016-12-20T06:11:00.088Z,-3.37
2016-12-20T06:12:00.084Z,-3.36
2016-12-20T06:12:59.752Z,-3.29
2016-12-20T06:14:00.068Z,-3.36
2016-12-20T06:15:00.064Z,-3.23
2016-12-20T06:16:00.066Z,-3.32
2016-12-20T06:17:00.060Z,-3.19
2016-12-20T06:18:00.053Z,-3.19
2016-12-20T06:18:59.716Z,-3.17
2016-12-20T06:19:59.712Z,-3.12
2016-12-20T06:21:00.025Z,-3.11
2016-12-20T06:21:59.712Z,-3.05
2016-12-20T06:23:00.025Z,-3.01
2016-12-20T06:23:59.685Z,-3.04
2016-12-20T06:24:59.677Z,-3.05
2016-12-20T06:26:00.005Z,-3.08
2016-12-20T06:26:59.673Z,-3.2
2016-12-20T06:27:59.997Z,-3.11
2016-12-20T06:28:59.993Z,-3.2
2016-12-20T06:29:59.657Z,-3.27
2016-12-20T06:30:59.653Z,-3.22
2016-12-20T06:31:59.645Z,-3.29
2016-12-20T06:32:59.669Z,-3.36
2016-12-20T06:33:59.637Z,-3.26
2016-12-20T06:34:59.957Z,-3.26
2016-12-20T06:35:59.950Z,-3.33
2016-12-20T06:36:59.945Z,-3.33
2016-12-20T06:37:59.609Z,-3.32
2016-12-20T06:38:59.613Z,-3.29
2016-12-20T06:39:59.925Z,-3.17
2016-12-20T06:40:59.929Z,-3.22
2016-12-20T06:41:59.913Z,-3.2
2016-12-20T06:42:59.909Z,-3.19
2016-12-20T06:43:59.261Z,-3.23
2016-12-20T06:44:59.905Z,-3.22
2016-12-20T06:45:59.893Z,-3.26
2016-12-20T06:46:59.945Z,-3.23
2016-12-20T06:47:59.889Z,-3.2
2016-12-20T06:48:59.894Z,-3.25
2016-12-20T06:49:59.557Z,-3.2
2016-12-20T06:50:59.861Z,-3.2
2016-12-20T06:51:59.870Z,-3.26
2016-12-20T06:52:59.537Z,-3.23
2016-12-20T06:53:59.534Z,-3.26
2016-12-20T06:54:59.538Z,-3.19
2016-12-20T06:55:59.514Z,-3.32
2016-12-20T06:56:59.218Z,-3.44
2016-12-20T06:57:59.847Z,-3.48
2016-12-20T06:58:59.502Z,-3.46
2016-12-20T06:59:59.825Z,-3.4
2016-12-20T07:00:59.821Z,-3.47
2016-12-20T07:01:59.485Z,-3.51
2016-12-20T07:02:59.482Z,-3.59
2016-12-20T07:03:59.807Z,-3.55
2016-12-20T07:04:59.782Z,-3.61
2016-12-20T07:05:59.790Z,-3.59
2016-12-20T07:06:59.454Z,-3.59
2016-12-20T07:07:59.130Z,-3.62
2016-12-20T07:08:59.782Z,-3.58
2016-12-20T07:09:59.438Z,-3.56
2016-12-20T07:10:59.438Z,-3.53
2016-12-20T07:11:59.762Z,-3.47
2016-12-20T07:12:59.750Z,-3.53
2016-12-20T07:13:59.747Z,-3.38
2016-12-20T07:14:59.078Z,-3.47
2016-12-20T07:15:59.411Z,-3.41
2016-12-20T07:16:59.407Z,-3.41
2016-12-20T07:17:59.395Z,-3.32
2016-12-20T07:18:59.718Z,-3.3
2016-12-20T07:19:59.722Z,-3.29
2016-12-20T07:20:59.051Z,-3.3
2016-12-20T07:21:59.378Z,-3.22
2016-12-20T07:22:59.374Z,-3.25
2016-12-20T07:23:59.374Z,-3.23
2016-12-20T07:24:59.686Z,-3.2
2016-12-20T07:25:59.686Z,-3.2
2016-12-20T07:26:59.677Z,-3.23
2016-12-20T07:27:59.674Z,-3.19
2016-12-20T07:28:59.337Z,-3.12
2016-12-20T07:29:59.322Z,-3.05
2016-12-20T07:30:59.657Z,-3.07
2016-12-20T07:31:59.649Z,-3.02
2016-12-20T07:32:59.417Z,-2.91
2016-12-20T07:33:59.641Z,-2.94
2016-12-20T07:34:59.632Z,-2.78
2016-12-20T07:35:59.304Z,-2.81
2016-12-20T07:36:59.300Z,-2.83
2016-12-20T07:37:59.280Z,-2.75
2016-12-20T07:38:59.280Z,-2.69
2016-12-20T07:39:59.272Z,-2.76
2016-12-20T07:40:59.596Z,-2.69
2016-12-20T07:41:59.596Z,-2.73
2016-12-20T07:42:59.260Z,-2.63
2016-12-20T07:43:59.252Z,-2.69
2016-12-20T07:44:59.584Z,-2.65
2016-12-20T07:45:59.248Z,-2.57
2016-12-20T07:46:59.600Z,-2.69
2016-12-20T07:47:59.240Z,-2.65
2016-12-20T07:48:59.231Z,-2.65
2016-12-20T07:49:59.220Z,-2.55
2016-12-20T07:50:59.219Z,-2.62
2016-12-20T07:51:58.888Z,-2.54
2016-12-20T07:52:59.204Z,-2.54
2016-12-20T07:53:59.209Z,-2.51
2016-12-20T07:54:59.203Z,-2.51
2016-12-20T07:55:59.520Z,-2.5
2016-12-20T07:56:59.196Z,-2.48
2016-12-20T07:57:59.180Z,-2.5
2016-12-20T07:58:59.504Z,-2.39
2016-12-20T07:59:59.499Z,-2.4
2016-12-20T08:00:59.491Z,-2.33
2016-12-20T08:01:59.156Z,-2.37
2016-12-20T08:02:58.823Z,-2.26
2016-12-20T08:03:59.152Z,-2.32
2016-12-20T08:04:59.148Z,-2.18
2016-12-20T08:05:59.135Z,-2.23
2016-12-20T08:06:59.127Z,-2.18
2016-12-20T08:07:59.135Z,-2.14
2016-12-20T08:08:59.459Z,-2.02
2016-12-20T08:09:59.452Z,-1.97
2016-12-20T08:10:59.119Z,-1.94
2016-12-20T08:11:59.106Z,-1.9
2016-12-20T08:12:59.440Z,-2
2016-12-20T08:13:59.096Z,-1.97
2016-12-20T08:14:59.412Z,-1.82
2016-12-20T08:15:59.416Z,-1.82
2016-12-20T08:16:59.412Z,-1.79
2016-12-20T08:17:59.084Z,-1.72
2016-12-20T08:18:59.076Z,-1.58
2016-12-20T08:19:59.080Z,-1.56
2016-12-20T08:20:59.065Z,-1.5
2016-12-20T08:21:59.061Z,-1.53
2016-12-20T08:22:59.053Z,-1.48
2016-12-20T08:23:59.385Z,-1.38
2016-12-20T08:24:59.369Z,-1.42
2016-12-20T08:25:59.377Z,-1.35
2016-12-20T08:26:59.361Z,-1.25
2016-12-20T08:27:59.021Z,-1.33
2016-12-20T08:28:59.357Z,-1.21
2016-12-20T08:29:59.349Z,-1.15
2016-12-20T08:30:59.342Z,-1.07
2016-12-20T08:31:59.050Z,-1.07
2016-12-20T08:32:59.006Z,-1
2016-12-20T08:33:59.350Z,-0.96
2016-12-20T08:34:58.994Z,-0.91
2016-12-20T08:35:59.326Z,-0.75
2016-12-20T08:36:59.302Z,-0.74
2016-12-20T08:37:59.306Z,-0.62
2016-12-20T08:38:58.982Z,-0.59
2016-12-20T08:39:58.975Z,-0.51
2016-12-20T08:40:59.299Z,-0.45
2016-12-20T08:41:58.963Z,-0.35
2016-12-20T08:42:58.959Z,-0.33
2016-12-20T08:43:58.979Z,-0.27
2016-12-20T08:44:59.283Z,-0.26
2016-12-20T08:45:58.939Z,-0.12
2016-12-20T08:46:59.299Z,-0.05
2016-12-20T08:47:58.932Z,0.01
2016-12-20T08:48:58.923Z,0.09
2016-12-20T08:49:58.919Z,0.13
2016-12-20T08:50:58.916Z,0.19
2016-12-20T08:51:59.240Z,0.26
2016-12-20T08:52:59.232Z,0.36
2016-12-20T08:53:59.232Z,0.33
2016-12-20T08:54:59.229Z,0.33
2016-12-20T08:55:58.892Z,0.39
2016-12-20T08:56:58.889Z,0.51
2016-12-20T08:57:59.209Z,0.47
2016-12-20T08:58:58.877Z,0.49
2016-12-20T08:59:58.913Z,0.51
2016-12-20T09:00:58.869Z,0.64
2016-12-20T09:01:59.193Z,0.63
2016-12-20T09:02:58.870Z,0.7
2016-12-20T09:03:59.186Z,0.76
2016-12-20T09:04:59.186Z,0.77
2016-12-20T09:05:58.850Z,0.78
2016-12-20T09:06:58.846Z,0.94
2016-12-20T09:07:58.846Z,0.85
2016-12-20T09:08:58.830Z,0.99
2016-12-20T09:09:58.826Z,1.02
2016-12-20T09:10:58.826Z,1.13
2016-12-20T09:11:59.154Z,1.16
2016-12-20T09:12:58.815Z,1.1
2016-12-20T09:13:58.827Z,1.09
2016-12-20T09:14:59.139Z,1.24
2016-12-20T09:15:58.807Z,1.25
2016-12-20T09:16:59.127Z,1.28
2016-12-20T09:17:59.115Z,1.31
2016-12-20T09:18:59.116Z,1.46
2016-12-20T09:19:58.451Z,1.43
2016-12-20T09:20:58.779Z,1.48
2016-12-20T09:21:58.784Z,1.48
2016-12-20T09:22:58.776Z,1.57
2016-12-20T09:23:58.784Z,1.56
2016-12-20T09:24:59.127Z,1.53
2016-12-20T09:25:59.088Z,1.64
2016-12-20T09:26:59.084Z,1.66
2016-12-20T09:27:58.748Z,1.49
2016-12-20T09:28:58.429Z,1.53
2016-12-20T09:29:59.069Z,1.53
2016-12-20T09:30:59.057Z,1.7
2016-12-20T09:31:59.064Z,1.58
2016-12-20T09:32:59.061Z,1.67
2016-12-20T09:33:58.729Z,1.58
2016-12-20T09:34:58.721Z,1.64
2016-12-20T09:35:59.045Z,1.64
2016-12-20T09:36:58.709Z,1.61
2016-12-20T09:37:59.033Z,1.6
2016-12-20T09:38:59.038Z,1.68
2016-12-20T09:39:58.694Z,1.7
2016-12-20T09:40:58.698Z,1.57
2016-12-20T09:41:58.682Z,1.63
2016-12-20T09:42:58.685Z,1.63
2016-12-20T09:43:58.682Z,1.66
2016-12-20T09:44:58.677Z,1.71
2016-12-20T09:45:59.010Z,1.79
2016-12-20T09:46:58.670Z,1.82
2016-12-20T09:47:59.001Z,1.82
2016-12-20T09:48:58.986Z,1.82
2016-12-20T09:49:59.006Z,1.89
2016-12-20T09:50:58.978Z,1.95
2016-12-20T09:51:58.974Z,1.97
2016-12-20T09:52:58.646Z,2.05
2016-12-20T09:53:58.650Z,2.04
2016-12-20T09:54:58.635Z,2
2016-12-20T09:55:58.963Z,2.14
2016-12-20T09:56:58.946Z,2.22
2016-12-20T09:57:58.947Z,2.12
2016-12-20T09:58:58.942Z,2.19
2016-12-20T09:59:58.942Z,2.32
2016-12-20T10:00:58.943Z,2.32
2016-12-20T10:01:58.935Z,2.41
2016-12-20T10:02:58.938Z,2.46
2016-12-20T10:03:58.599Z,2.57
2016-12-20T10:04:58.595Z,2.54
2016-12-20T10:05:58.258Z,2.54
2016-12-20T10:06:58.899Z,2.61
2016-12-20T10:07:58.579Z,2.55
2016-12-20T10:08:58.903Z,2.68
2016-12-20T10:09:58.895Z,2.72
2016-12-20T10:10:58.895Z,2.79
2016-12-20T10:11:58.887Z,2.79
2016-12-20T10:12:58.563Z,2.83
2016-12-20T10:13:58.879Z,2.94
2016-12-20T10:14:58.875Z,3.09
2016-12-20T10:15:58.547Z,2.93
2016-12-20T10:16:58.880Z,2.97
2016-12-20T10:17:58.539Z,3
2016-12-20T10:18:58.863Z,3.05
2016-12-20T10:19:58.860Z,3.15
2016-12-20T10:20:58.851Z,3.21
2016-12-20T10:21:58.855Z,3.24
2016-12-20T10:22:58.520Z,3.18
2016-12-20T10:23:58.851Z,3.34
2016-12-20T10:24:58.512Z,3.4
2016-12-20T10:25:58.507Z,3.36
2016-12-20T10:26:58.831Z,3.46
2016-12-20T10:27:58.499Z,3.37
2016-12-20T10:28:58.167Z,3.46
2016-12-20T10:29:58.819Z,3.33
2016-12-20T10:30:58.816Z,3.33
2016-12-20T10:31:58.494Z,3.49
2016-12-20T10:32:58.483Z,3.49
2016-12-20T10:33:58.807Z,3.5
2016-12-20T10:34:58.800Z,3.59
2016-12-20T10:35:58.464Z,3.55
2016-12-20T10:36:58.792Z,3.68
2016-12-20T10:37:58.470Z,3.66
2016-12-20T10:38:58.456Z,3.66
2016-12-20T10:39:58.448Z,3.71
2016-12-20T10:40:58.779Z,3.74
2016-12-20T10:41:58.456Z,3.76
2016-12-20T10:42:58.440Z,3.74
2016-12-20T10:43:58.788Z,3.81
2016-12-20T10:44:58.432Z,3.77
2016-12-20T10:45:58.432Z,3.81
2016-12-20T10:46:58.748Z,3.82
2016-12-20T10:47:58.424Z,3.77
2016-12-20T10:48:58.428Z,3.76
2016-12-20T10:49:58.744Z,3.76
2016-12-20T10:50:58.412Z,3.78
2016-12-20T10:51:58.412Z,3.77
2016-12-20T10:52:58.076Z,3.76
2016-12-20T10:53:58.732Z,3.85
2016-12-20T10:54:58.392Z,3.89
2016-12-20T10:55:58.716Z,3.85
2016-12-20T10:56:58.416Z,3.86
2016-12-20T10:57:58.716Z,3.89
2016-12-20T10:58:58.376Z,3.95
2016-12-20T10:59:58.700Z,3.86
2016-12-20T11:00:58.380Z,3.88
2016-12-20T11:01:58.376Z,3.85
2016-12-20T11:02:58.376Z,3.77
2016-12-20T11:03:58.369Z,3.77
2016-12-20T11:04:58.685Z,3.7
2016-12-20T11:05:58.389Z,3.64
2016-12-20T11:06:58.732Z,3.71
2016-12-20T11:07:58.677Z,3.74
2016-12-20T11:08:58.669Z,3.73
2016-12-20T11:09:58.672Z,3.74
2016-12-20T11:10:58.341Z,3.71
2016-12-20T11:11:58.333Z,3.71
2016-12-20T11:12:58.661Z,3.81
2016-12-20T11:13:58.353Z,3.82
2016-12-20T11:14:58.649Z,3.74
2016-12-20T11:15:57.993Z,3.84
2016-12-20T11:16:58.313Z,3.77
2016-12-20T11:17:58.645Z,3.84
2016-12-20T11:18:58.310Z,3.71
2016-12-20T11:19:58.637Z,3.76
2016-12-20T11:20:58.637Z,3.76
2016-12-20T11:21:58.305Z,3.89
2016-12-20T11:22:58.289Z,3.95
2016-12-20T11:23:58.325Z,3.92
2016-12-20T11:24:58.657Z,4.02
2016-12-20T11:25:58.609Z,4.09
2016-12-20T11:26:58.281Z,4.13
2016-12-20T11:27:58.613Z,4.24
2016-12-20T11:28:58.605Z,4.36
2016-12-20T11:29:58.277Z,4.43
2016-12-20T11:30:58.293Z,4.45
2016-12-20T11:31:58.592Z,4.49
2016-12-20T11:32:58.580Z,4.57
2016-12-20T11:33:58.581Z,4.66
2016-12-20T11:34:57.929Z,4.67
2016-12-20T11:35:58.249Z,4.74
2016-12-20T11:36:58.241Z,4.71
2016-12-20T11:37:58.569Z,4.82
2016-12-20T11:38:58.565Z,4.74
2016-12-20T11:39:58.565Z,4.9
2016-12-20T11:40:58.229Z,5.01
2016-12-20T11:41:58.549Z,4.98
2016-12-20T11:42:58.557Z,5.05
2016-12-20T11:43:58.545Z,5.02
2016-12-20T11:44:57.889Z,5.02
2016-12-20T11:45:57.889Z,5.1
2016-12-20T11:46:58.205Z,5.12
2016-12-20T11:47:58.211Z,5.05
2016-12-20T11:48:58.204Z,5.08
2016-12-20T11:49:58.196Z,5.12
2016-12-20T11:50:58.528Z,5.16
2016-12-20T11:51:58.512Z,5.13
2016-12-20T11:52:58.512Z,5.1
2016-12-20T11:53:58.508Z,5.1
2016-12-20T11:54:58.180Z,5.1
2016-12-20T11:55:58.172Z,5.1
2016-12-20T11:56:58.500Z,5.18
2016-12-20T11:57:58.492Z,5.19
2016-12-20T11:58:58.487Z,5.22
2016-12-20T11:59:58.488Z,5.15
2016-12-20T12:00:58.164Z,5.16
2016-12-20T12:01:58.159Z,5.08
2016-12-20T12:02:58.479Z,5.19
2016-12-20T12:03:58.155Z,5.15
2016-12-20T12:04:58.471Z,5.19
2016-12-20T12:05:58.467Z,5.22
2016-12-20T12:06:58.463Z,5.25
2016-12-20T12:07:58.131Z,5.2
2016-12-20T12:08:58.127Z,5.25
2016-12-20T12:09:58.119Z,5.28
2016-12-20T12:10:58.446Z,5.26
2016-12-20T12:11:58.118Z,5.29
2016-12-20T12:12:58.435Z,5.36
2016-12-20T12:13:58.447Z,5.37
2016-12-20T12:14:58.438Z,5.43
2016-12-20T12:15:58.434Z,5.31
2016-12-20T12:16:58.102Z,5.38
2016-12-20T12:17:58.098Z,5.33
2016-12-20T12:18:58.422Z,5.36
2016-12-20T12:19:58.418Z,5.36
2016-12-20T12:20:58.090Z,5.29
2016-12-20T12:21:58.415Z,5.4
2016-12-20T12:22:58.090Z,5.36
2016-12-20T12:23:58.407Z,5.4
2016-12-20T12:24:58.399Z,5.31
2016-12-20T12:25:58.411Z,5.37
2016-12-20T12:26:58.071Z,5.28
2016-12-20T12:27:58.067Z,5.38
2016-12-20T12:28:58.387Z,5.34
2016-12-20T12:29:58.391Z,5.38
2016-12-20T12:30:58.059Z,5.36
2016-12-20T12:31:58.060Z,5.36
2016-12-20T12:32:58.375Z,5.36
2016-12-20T12:33:57.727Z,5.38
2016-12-20T12:34:57.723Z,5.4
2016-12-20T12:35:58.372Z,5.4
2016-12-20T12:36:58.035Z,5.36
2016-12-20T12:37:58.048Z,5.4
2016-12-20T12:38:58.356Z,5.38
2016-12-20T12:39:58.351Z,5.4
2016-12-20T12:40:58.027Z,5.49
2016-12-20T12:41:58.024Z,5.49
2016-12-20T12:42:58.032Z,5.51
2016-12-20T12:43:58.044Z,5.51
2016-12-20T12:44:58.344Z,5.61
2016-12-20T12:45:58.344Z,5.65
2016-12-20T12:46:58.336Z,5.67
2016-12-20T12:47:58.336Z,5.65
2016-12-20T12:48:58.320Z,5.51
2016-12-20T12:49:58.332Z,5.51
2016-12-20T12:50:58.320Z,5.54
2016-12-20T12:51:57.988Z,5.51
2016-12-20T12:52:57.664Z,5.4
2016-12-20T12:53:58.312Z,5.44
2016-12-20T12:54:57.984Z,5.49
2016-12-20T12:55:58.312Z,5.54
2016-12-20T12:56:57.980Z,5.54
2016-12-20T12:57:57.980Z,5.62
2016-12-20T12:58:57.969Z,5.64
2016-12-20T12:59:58.309Z,5.62
2016-12-20T13:00:57.645Z,5.65
2016-12-20T13:01:57.964Z,5.59
2016-12-20T13:02:58.285Z,5.64